This is the latest recevied weather packets stored in our database for station/object NF3Q. If no packets are shown the sender has not sent any weather packets the latest 10 day(s).
| Time | Temp. | Humidity | Pressure | Rain* | Wind** | Luminosity | Snow |
|---|---|---|---|---|---|---|---|
| 1777175405 | 8.89° C | 82% | 1015.3 hPa | 0 mm | - | - | - |
| 1777173321 | 9.44° C | 81% | 1015.1 hPa | 0 mm | - | - | - |
| 1777173003 | 9.44° C | 81% | 1015.1 hPa | 0 mm | - | - | - |
| 1777172404 | 9.44° C | 81% | 1015 hPa | 0 mm | - | - | - |
| 1777171808 | 9.44° C | 81% | 1015.1 hPa | 0 mm | - | - | - |
| 1777171509 | 9.44° C | 81% | 1015 hPa | 0 mm | - | - | - |
| 1777170306 | 9.44° C | 80% | 1015 hPa | 0 mm | - | - | - |
| 1777167907 | 10.56° C | 80% | 1014.4 hPa | 0 mm | - | - | - |
| 1777167306 | 10.56° C | 80% | 1014.2 hPa | 0 mm | - | - | - |
| 1777164608 | 11.67° C | 79% | 1013.5 hPa | 0 mm | - | - | - |
| 1777164004 | 12.22° C | 79% | 1013.3 hPa | 0 mm | - | - | - |
| 1777162808 | 12.22° C | 80% | 1012.9 hPa | 0 mm | - | - | - |
| 1777161906 | 12.78° C | 80% | 1012.5 hPa | 0 mm | - | - | - |
| 1777161620 | 12.78° C | 80% | 1012.4 hPa | 0 mm | - | - | - |
| 1777161011 | 12.78° C | 80% | 1012.1 hPa | 0 mm | - | - | - |
| 1777160725 | 12.78° C | 80% | 1012.1 hPa | 0 mm | - | - | - |
| 1777160404 | 13.33° C | 80% | 1012 hPa | 0 mm | - | - | - |
| 1777159211 | 13.33° C | 79% | 1011.8 hPa | 0 mm | - | - | - |
| 1777155904 | 13.89° C | 78% | 1011.5 hPa | 0 mm | - | - | - |
| 1777155315 | 13.89° C | 78% | 1011.5 hPa | 0 mm | - | - | - |
| 1777153807 | 14.44° C | 78% | 1011.1 hPa | 0 mm | - | - | - |
| 1777149921 | 15° C | 79% | 1010.4 hPa | 0 mm | - | - | - |
| 1777146909 | 15.56° C | 82% | 1010 hPa | 0 mm | - | - | - |
| 1777146322 | 15.56° C | 84% | 1009.8 hPa | 0 mm | - | - | - |
| 1777143007 | 17.22° C | 84% | 1008.8 hPa | 0 mm | - | - | - |
* Rain latest hour (hover to see other rain measurements)
** Current wind speed in m/s (hover to see current wind gust speed)